Fierro, New Mexico
Current Conditions -  °F | °C
As of 10:35 PM on Sunday 19 Oct 2014 (Local Time) from KSVC Reporting Station
Broken Clouds Broken Clouds  
Wind Chill: 54°   Ceiling: 8500
Heat Index: 54°   Visibility: 10mi
Dew Point: 48°   Wind: 9mph
Humidity: 82%   Direction: 340°NNW
Pressure: 30.16"   Gusts: NA
Location:  32.8022°N, 107.921°W
Report Text: KSVC 200435Z AUTO 34008KT 10SM BKN085 12/09 A3016 RMK AO2
Loading
Personal Weather Stations






























Interactive Weather Map
Tropical Storm Tracking
New forecast layout! Learn more

10-Day Weather Forecast

Advertisements
Track Severe Weather on mobile